sensor_id;sensor_type;location;lat;lon;timestamp;temperature;humidity
25963;DHT22;13760;52.588;13.406;2023-07-24T00:02:24;18.80;99.90
25963;DHT22;13760;52.588;13.406;2023-07-24T00:04:50;18.80;99.90
25963;DHT22;13760;52.588;13.406;2023-07-24T00:07:16;18.90;99.90
25963;DHT22;13760;52.588;13.406;2023-07-24T00:09:42;18.90;99.90
25963;DHT22;13760;52.588;13.406;2023-07-24T00:12:08;18.90;99.90
25963;DHT22;13760;52.588;13.406;2023-07-24T00:14:34;18.90;99.90
25963;DHT22;13760;52.588;13.406;2023-07-24T00:17:02;18.80;99.90
25963;DHT22;13760;52.588;13.406;2023-07-24T00:19:28;18.90;99.90
25963;DHT22;13760;52.588;13.406;2023-07-24T00:21:54;18.90;99.90
25963;DHT22;13760;52.588;13.406;2023-07-24T00:24:19;18.90;99.90
25963;DHT22;13760;52.588;13.406;2023-07-24T00:26:45;19.00;99.90
25963;DHT22;13760;52.588;13.406;2023-07-24T00:29:10;19.00;99.90
25963;DHT22;13760;52.588;13.406;2023-07-24T00:31:38;19.10;99.90
25963;DHT22;13760;52.588;13.406;2023-07-24T00:34:07;19.20;99.90
25963;DHT22;13760;52.588;13.406;2023-07-24T00:36:32;19.20;99.90
25963;DHT22;13760;52.588;13.406;2023-07-24T00:38:58;19.30;99.90
25963;DHT22;13760;52.588;13.406;2023-07-24T00:41:24;19.30;99.90
25963;DHT22;13760;52.588;13.406;2023-07-24T00:43:53;19.40;99.90
25963;DHT22;13760;52.588;13.406;2023-07-24T00:46:18;19.40;99.90
25963;DHT22;13760;52.588;13.406;2023-07-24T00:48:44;19.40;99.90
25963;DHT22;13760;52.588;13.406;2023-07-24T00:51:10;19.40;99.90
25963;DHT22;13760;52.588;13.406;2023-07-24T00:53:36;19.40;99.90
25963;DHT22;13760;52.588;13.406;2023-07-24T00:56:02;19.40;99.90
25963;DHT22;13760;52.588;13.406;2023-07-24T00:58:28;19.50;99.90
25963;DHT22;13760;52.588;13.406;2023-07-24T01:00:54;19.50;99.90
25963;DHT22;13760;52.588;13.406;2023-07-24T01:03:20;19.50;99.90
25963;DHT22;13760;52.588;13.406;2023-07-24T01:05:47;19.50;99.90
25963;DHT22;13760;52.588;13.406;2023-07-24T01:08:12;19.40;99.90
25963;DHT22;13760;52.588;13.406;2023-07-24T01:10:38;19.50;99.90
25963;DHT22;13760;52.588;13.406;2023-07-24T01:13:15;19.40;99.90
25963;DHT22;13760;52.588;13.406;2023-07-24T01:15:54;19.40;99.90
25963;DHT22;13760;52.588;13.406;2023-07-24T01:18:22;19.40;99.90
25963;DHT22;13760;52.588;13.406;2023-07-24T01:20:51;19.40;99.90
25963;DHT22;13760;52.588;13.406;2023-07-24T01:23:54;19.40;99.90
25963;DHT22;13760;52.588;13.406;2023-07-24T01:26:25;19.40;99.90
25963;DHT22;13760;52.588;13.406;2023-07-24T01:28:51;19.40;99.90
25963;DHT22;13760;52.588;13.406;2023-07-24T01:31:16;19.40;99.90
25963;DHT22;13760;52.588;13.406;2023-07-24T01:33:43;19.40;99.90
25963;DHT22;13760;52.588;13.406;2023-07-24T01:36:10;19.40;99.90
25963;DHT22;13760;52.588;13.406;2023-07-24T01:38:36;19.40;99.90
25963;DHT22;13760;52.588;13.406;2023-07-24T01:41:05;19.40;99.90
25963;DHT22;13760;52.588;13.406;2023-07-24T01:43:31;19.40;99.90
25963;DHT22;13760;52.588;13.406;2023-07-24T01:45:59;19.40;99.90
25963;DHT22;13760;52.588;13.406;2023-07-24T01:48:28;19.40;99.90
25963;DHT22;13760;52.588;13.406;2023-07-24T01:50:54;19.40;99.90
25963;DHT22;13760;52.588;13.406;2023-07-24T01:53:20;19.40;99.90
25963;DHT22;13760;52.588;13.406;2023-07-24T01:55:46;19.40;99.90
25963;DHT22;13760;52.588;13.406;2023-07-24T01:58:11;19.40;99.90
25963;DHT22;13760;52.588;13.406;2023-07-24T02:00:37;19.40;99.90
25963;DHT22;13760;52.588;13.406;2023-07-24T02:03:02;19.40;99.90
25963;DHT22;13760;52.588;13.406;2023-07-24T02:05:28;19.50;99.90
25963;DHT22;13760;52.588;13.406;2023-07-24T02:07:54;19.50;99.90
25963;DHT22;13760;52.588;13.406;2023-07-24T02:10:20;19.60;99.90
25963;DHT22;13760;52.588;13.406;2023-07-24T02:12:49;19.60;99.90
25963;DHT22;13760;52.588;13.406;2023-07-24T02:15:14;19.70;99.90
25963;DHT22;13760;52.588;13.406;2023-07-24T02:17:40;19.70;99.90
25963;DHT22;13760;52.588;13.406;2023-07-24T02:20:08;19.70;99.90
25963;DHT22;13760;52.588;13.406;2023-07-24T02:22:37;19.70;99.90
25963;DHT22;13760;52.588;13.406;2023-07-24T02:25:03;19.70;99.90
25963;DHT22;13760;52.588;13.406;2023-07-24T02:27:30;19.70;99.90
25963;DHT22;13760;52.588;13.406;2023-07-24T02:30:00;19.70;99.90
25963;DHT22;13760;52.588;13.406;2023-07-24T02:32:25;19.70;99.90
25963;DHT22;13760;52.588;13.406;2023-07-24T02:34:52;19.80;99.90
25963;DHT22;13760;52.588;13.406;2023-07-24T02:37:18;19.70;99.90
25963;DHT22;13760;52.588;13.406;2023-07-24T02:39:47;19.70;99.90
25963;DHT22;13760;52.588;13.406;2023-07-24T02:42:12;19.70;99.90
25963;DHT22;13760;52.588;13.406;2023-07-24T02:44:38;19.80;99.90
25963;DHT22;13760;52.588;13.406;2023-07-24T02:47:04;19.80;99.90
25963;DHT22;13760;52.588;13.406;2023-07-24T02:49:32;19.70;99.90
25963;DHT22;13760;52.588;13.406;2023-07-24T02:51:58;19.70;99.90
25963;DHT22;13760;52.588;13.406;2023-07-24T02:54:25;19.70;99.90
25963;DHT22;13760;52.588;13.406;2023-07-24T02:56:51;19.70;99.90
25963;DHT22;13760;52.588;13.406;2023-07-24T02:59:22;19.70;99.90
25963;DHT22;13760;52.588;13.406;2023-07-24T03:01:48;19.70;99.90
25963;DHT22;13760;52.588;13.406;2023-07-24T03:04:13;19.80;99.90
25963;DHT22;13760;52.588;13.406;2023-07-24T03:06:39;19.80;99.90
25963;DHT22;13760;52.588;13.406;2023-07-24T03:09:08;19.80;99.90
25963;DHT22;13760;52.588;13.406;2023-07-24T03:11:36;19.80;99.90
25963;DHT22;13760;52.588;13.406;2023-07-24T03:14:04;19.80;99.90
25963;DHT22;13760;52.588;13.406;2023-07-24T03:16:30;19.80;99.90
25963;DHT22;13760;52.588;13.406;2023-07-24T03:18:59;19.70;99.90
25963;DHT22;13760;52.588;13.406;2023-07-24T03:21:24;19.70;99.90
25963;DHT22;13760;52.588;13.406;2023-07-24T03:23:50;19.70;99.90
25963;DHT22;13760;52.588;13.406;2023-07-24T03:26:16;19.60;99.90
25963;DHT22;13760;52.588;13.406;2023-07-24T03:28:42;19.60;99.90
25963;DHT22;13760;52.588;13.406;2023-07-24T03:31:07;19.50;99.90
25963;DHT22;13760;52.588;13.406;2023-07-24T03:33:33;19.50;99.90
25963;DHT22;13760;52.588;13.406;2023-07-24T03:35:59;19.50;99.90
25963;DHT22;13760;52.588;13.406;2023-07-24T03:38:24;19.50;99.90
25963;DHT22;13760;52.588;13.406;2023-07-24T03:40:50;19.50;99.90
25963;DHT22;13760;52.588;13.406;2023-07-24T03:43:16;19.50;99.90
25963;DHT22;13760;52.588;13.406;2023-07-24T03:45:41;19.50;99.90
25963;DHT22;13760;52.588;13.406;2023-07-24T03:48:16;19.50;99.90
25963;DHT22;13760;52.588;13.406;2023-07-24T03:50:50;19.40;99.90
25963;DHT22;13760;52.588;13.406;2023-07-24T03:53:16;19.30;99.90
25963;DHT22;13760;52.588;13.406;2023-07-24T03:55:42;19.10;99.90
25963;DHT22;13760;52.588;13.406;2023-07-24T03:58:17;19.00;99.90
25963;DHT22;13760;52.588;13.406;2023-07-24T04:00:56;19.00;99.90
25963;DHT22;13760;52.588;13.406;2023-07-24T04:03:39;18.90;99.90
25963;DHT22;13760;52.588;13.406;2023-07-24T04:06:18;18.80;99.90
25963;DHT22;13760;52.588;13.406;2023-07-24T04:09:05;18.80;99.90
25963;DHT22;13760;52.588;13.406;2023-07-24T04:11:40;18.70;99.90
25963;DHT22;13760;52.588;13.406;2023-07-24T04:14:05;18.70;99.90
25963;DHT22;13760;52.588;13.406;2023-07-24T04:16:34;18.70;99.90
25963;DHT22;13760;52.588;13.406;2023-07-24T04:18:59;18.60;99.90
25963;DHT22;13760;52.588;13.406;2023-07-24T04:21:25;18.60;99.90
25963;DHT22;13760;52.588;13.406;2023-07-24T04:23:51;18.60;99.90
25963;DHT22;13760;52.588;13.406;2023-07-24T04:26:16;18.60;99.90
25963;DHT22;13760;52.588;13.406;2023-07-24T04:28:42;18.60;99.90
25963;DHT22;13760;52.588;13.406;2023-07-24T04:31:07;18.60;99.90
25963;DHT22;13760;52.588;13.406;2023-07-24T04:33:33;18.60;99.90
25963;DHT22;13760;52.588;13.406;2023-07-24T04:35:59;18.70;99.90
25963;DHT22;13760;52.588;13.406;2023-07-24T04:38:25;18.70;99.90
25963;DHT22;13760;52.588;13.406;2023-07-24T04:40:50;18.70;99.90
25963;DHT22;13760;52.588;13.406;2023-07-24T04:43:16;18.70;99.90
25963;DHT22;13760;52.588;13.406;2023-07-24T04:45:42;18.70;99.90
25963;DHT22;13760;52.588;13.406;2023-07-24T04:48:07;18.80;99.90
25963;DHT22;13760;52.588;13.406;2023-07-24T04:50:33;18.70;99.90
25963;DHT22;13760;52.588;13.406;2023-07-24T04:52:59;18.80;99.90
25963;DHT22;13760;52.588;13.406;2023-07-24T04:55:24;18.80;99.90
25963;DHT22;13760;52.588;13.406;2023-07-24T04:57:50;18.80;99.90
25963;DHT22;13760;52.588;13.406;2023-07-24T05:00:16;18.90;99.90
25963;DHT22;13760;52.588;13.406;2023-07-24T05:02:44;18.90;99.90
25963;DHT22;13760;52.588;13.406;2023-07-24T05:05:10;18.90;99.90
25963;DHT22;13760;52.588;13.406;2023-07-24T05:07:35;19.00;99.90
25963;DHT22;13760;52.588;13.406;2023-07-24T05:10:01;19.00;99.90
25963;DHT22;13760;52.588;13.406;2023-07-24T05:12:40;19.10;99.90
25963;DHT22;13760;52.588;13.406;2023-07-24T05:15:07;19.20;99.90
25963;DHT22;13760;52.588;13.406;2023-07-24T05:17:35;19.20;99.90
25963;DHT22;13760;52.588;13.406;2023-07-24T05:20:10;19.20;99.90
25963;DHT22;13760;52.588;13.406;2023-07-24T05:22:38;19.20;99.90
25963;DHT22;13760;52.588;13.406;2023-07-24T05:25:05;19.30;99.90
25963;DHT22;13760;52.588;13.406;2023-07-24T05:27:36;19.30;99.90
25963;DHT22;13760;52.588;13.406;2023-07-24T05:30:04;19.40;99.90
25963;DHT22;13760;52.588;13.406;2023-07-24T05:32:30;19.40;99.90
25963;DHT22;13760;52.588;13.406;2023-07-24T05:34:55;19.60;99.90
25963;DHT22;13760;52.588;13.406;2023-07-24T05:37:21;19.60;99.90
25963;DHT22;13760;52.588;13.406;2023-07-24T05:39:47;19.70;99.90
25963;DHT22;13760;52.588;13.406;2023-07-24T05:42:15;19.80;99.90
25963;DHT22;13760;52.588;13.406;2023-07-24T05:44:53;19.90;99.90
25963;DHT22;13760;52.588;13.406;2023-07-24T05:47:21;19.90;99.90
25963;DHT22;13760;52.588;13.406;2023-07-24T05:49:50;19.90;99.90
25963;DHT22;13760;52.588;13.406;2023-07-24T05:52:16;20.00;99.90
25963;DHT22;13760;52.588;13.406;2023-07-24T05:54:42;20.00;99.90
25963;DHT22;13760;52.588;13.406;2023-07-24T05:57:08;20.10;99.90
25963;DHT22;13760;52.588;13.406;2023-07-24T05:59:34;20.10;99.90
25963;DHT22;13760;52.588;13.406;2023-07-24T06:01:59;20.10;99.90
25963;DHT22;13760;52.588;13.406;2023-07-24T06:04:27;20.10;99.90
25963;DHT22;13760;52.588;13.406;2023-07-24T06:06:53;20.20;99.90
25963;DHT22;13760;52.588;13.406;2023-07-24T06:09:18;20.20;99.90
25963;DHT22;13760;52.588;13.406;2023-07-24T06:11:44;20.30;99.90
25963;DHT22;13760;52.588;13.406;2023-07-24T06:14:09;20.40;99.90
25963;DHT22;13760;52.588;13.406;2023-07-24T06:16:35;20.40;99.90
25963;DHT22;13760;52.588;13.406;2023-07-24T06:19:00;20.50;99.90
25963;DHT22;13760;52.588;13.406;2023-07-24T06:21:26;20.60;99.90
25963;DHT22;13760;52.588;13.406;2023-07-24T06:23:51;20.70;99.90
25963;DHT22;13760;52.588;13.406;2023-07-24T06:26:17;20.80;99.90
25963;DHT22;13760;52.588;13.406;2023-07-24T06:28:43;20.80;99.90
25963;DHT22;13760;52.588;13.406;2023-07-24T06:31:08;20.80;99.90
25963;DHT22;13760;52.588;13.406;2023-07-24T06:33:34;20.80;99.90
25963;DHT22;13760;52.588;13.406;2023-07-24T06:39:22;20.90;99.90
25963;DHT22;13760;52.588;13.406;2023-07-24T06:41:48;20.90;99.90
25963;DHT22;13760;52.588;13.406;2023-07-24T06:44:13;21.00;99.90
25963;DHT22;13760;52.588;13.406;2023-07-24T06:46:39;21.10;99.90
25963;DHT22;13760;52.588;13.406;2023-07-24T06:49:05;21.10;99.90
25963;DHT22;13760;52.588;13.406;2023-07-24T06:51:30;21.20;99.90
25963;DHT22;13760;52.588;13.406;2023-07-24T06:53:56;21.30;99.90
25963;DHT22;13760;52.588;13.406;2023-07-24T06:56:21;21.40;99.90
25963;DHT22;13760;52.588;13.406;2023-07-24T06:58:47;21.50;99.90
25963;DHT22;13760;52.588;13.406;2023-07-24T07:01:13;21.70;99.90
25963;DHT22;13760;52.588;13.406;2023-07-24T07:03:38;21.80;99.90
25963;DHT22;13760;52.588;13.406;2023-07-24T07:06:10;21.90;99.90
25963;DHT22;13760;52.588;13.406;2023-07-24T07:09:01;22.00;99.90
25963;DHT22;13760;52.588;13.406;2023-07-24T07:11:37;22.30;99.90
25963;DHT22;13760;52.588;13.406;2023-07-24T07:14:02;22.50;99.90
25963;DHT22;13760;52.588;13.406;2023-07-24T07:16:33;22.70;99.90
25963;DHT22;13760;52.588;13.406;2023-07-24T07:19:04;22.90;99.90
25963;DHT22;13760;52.588;13.406;2023-07-24T07:21:33;23.10;99.90
25963;DHT22;13760;52.588;13.406;2023-07-24T07:24:01;23.40;99.90
25963;DHT22;13760;52.588;13.406;2023-07-24T07:26:27;23.60;99.90
25963;DHT22;13760;52.588;13.406;2023-07-24T07:28:58;23.70;99.90
25963;DHT22;13760;52.588;13.406;2023-07-24T07:31:24;23.90;99.90
25963;DHT22;13760;52.588;13.406;2023-07-24T07:33:49;24.00;99.90
25963;DHT22;13760;52.588;13.406;2023-07-24T07:36:15;24.20;99.90
25963;DHT22;13760;52.588;13.406;2023-07-24T07:38:41;24.20;99.90
25963;DHT22;13760;52.588;13.406;2023-07-24T07:41:06;24.20;99.90
25963;DHT22;13760;52.588;13.406;2023-07-24T07:43:35;24.30;99.90
25963;DHT22;13760;52.588;13.406;2023-07-24T07:46:02;24.40;99.90
25963;DHT22;13760;52.588;13.406;2023-07-24T07:48:36;24.50;99.90
25963;DHT22;13760;52.588;13.406;2023-07-24T07:51:02;24.60;99.90
25963;DHT22;13760;52.588;13.406;2023-07-24T07:53:31;24.70;99.90
25963;DHT22;13760;52.588;13.406;2023-07-24T07:55:57;24.90;99.90
25963;DHT22;13760;52.588;13.406;2023-07-24T07:58:23;25.00;99.90
25963;DHT22;13760;52.588;13.406;2023-07-24T08:00:49;25.00;99.90
25963;DHT22;13760;52.588;13.406;2023-07-24T08:03:15;25.10;99.90
25963;DHT22;13760;52.588;13.406;2023-07-24T08:05:40;25.10;99.90
25963;DHT22;13760;52.588;13.406;2023-07-24T08:08:06;25.10;99.90
25963;DHT22;13760;52.588;13.406;2023-07-24T08:10:36;25.10;99.90
25963;DHT22;13760;52.588;13.406;2023-07-24T08:13:02;25.20;99.90
25963;DHT22;13760;52.588;13.406;2023-07-24T08:15:28;25.40;99.90
25963;DHT22;13760;52.588;13.406;2023-07-24T08:17:56;25.40;99.90
25963;DHT22;13760;52.588;13.406;2023-07-24T08:20:21;25.30;99.90
25963;DHT22;13760;52.588;13.406;2023-07-24T08:22:47;25.20;99.90
25963;DHT22;13760;52.588;13.406;2023-07-24T08:25:12;25.30;99.90
25963;DHT22;13760;52.588;13.406;2023-07-24T08:27:38;25.40;99.90
25963;DHT22;13760;52.588;13.406;2023-07-24T08:30:04;25.40;99.90
25963;DHT22;13760;52.588;13.406;2023-07-24T08:32:30;25.60;99.90
25963;DHT22;13760;52.588;13.406;2023-07-24T08:34:55;25.70;99.90
25963;DHT22;13760;52.588;13.406;2023-07-24T08:37:21;25.90;99.90
25963;DHT22;13760;52.588;13.406;2023-07-24T08:39:47;25.80;99.90
25963;DHT22;13760;52.588;13.406;2023-07-24T08:42:13;25.70;99.90
25963;DHT22;13760;52.588;13.406;2023-07-24T08:44:39;25.80;99.90
25963;DHT22;13760;52.588;13.406;2023-07-24T08:47:09;25.70;99.90
25963;DHT22;13760;52.588;13.406;2023-07-24T08:49:39;25.70;99.90
25963;DHT22;13760;52.588;13.406;2023-07-24T08:52:14;25.60;99.90
25963;DHT22;13760;52.588;13.406;2023-07-24T08:54:40;25.40;99.90
25963;DHT22;13760;52.588;13.406;2023-07-24T08:57:07;25.50;99.90
25963;DHT22;13760;52.588;13.406;2023-07-24T08:59:33;25.60;99.90
25963;DHT22;13760;52.588;13.406;2023-07-24T09:01:59;25.60;99.90
25963;DHT22;13760;52.588;13.406;2023-07-24T09:04:25;25.60;99.90
25963;DHT22;13760;52.588;13.406;2023-07-24T09:06:51;25.70;99.90
25963;DHT22;13760;52.588;13.406;2023-07-24T09:09:17;25.70;99.90
25963;DHT22;13760;52.588;13.406;2023-07-24T09:11:50;25.70;99.90
25963;DHT22;13760;52.588;13.406;2023-07-24T09:14:29;25.80;99.90
25963;DHT22;13760;52.588;13.406;2023-07-24T09:17:10;26.00;99.90
25963;DHT22;13760;52.588;13.406;2023-07-24T09:19:37;26.00;99.90
25963;DHT22;13760;52.588;13.406;2023-07-24T09:22:14;26.20;99.90
25963;DHT22;13760;52.588;13.406;2023-07-24T09:24:57;26.40;99.90
25963;DHT22;13760;52.588;13.406;2023-07-24T09:27:28;26.50;99.90
25963;DHT22;13760;52.588;13.406;2023-07-24T09:29:55;26.50;99.90
25963;DHT22;13760;52.588;13.406;2023-07-24T09:32:24;26.40;99.90
25963;DHT22;13760;52.588;13.406;2023-07-24T09:34:51;26.50;99.90
25963;DHT22;13760;52.588;13.406;2023-07-24T09:37:35;26.40;99.90
25963;DHT22;13760;52.588;13.406;2023-07-24T09:40:04;26.30;99.90
25963;DHT22;13760;52.588;13.406;2023-07-24T09:42:31;26.30;99.90
25963;DHT22;13760;52.588;13.406;2023-07-24T09:44:57;26.30;99.90
25963;DHT22;13760;52.588;13.406;2023-07-24T09:47:23;26.30;99.90
25963;DHT22;13760;52.588;13.406;2023-07-24T09:49:52;26.40;99.90
25963;DHT22;13760;52.588;13.406;2023-07-24T09:52:19;26.40;99.90
25963;DHT22;13760;52.588;13.406;2023-07-24T09:55:11;26.50;99.90
25963;DHT22;13760;52.588;13.406;2023-07-24T09:57:36;26.40;99.90
25963;DHT22;13760;52.588;13.406;2023-07-24T10:00:03;26.50;99.90
25963;DHT22;13760;52.588;13.406;2023-07-24T10:02:29;26.60;99.90
25963;DHT22;13760;52.588;13.406;2023-07-24T10:04:55;26.80;99.90
25963;DHT22;13760;52.588;13.406;2023-07-24T10:07:22;26.80;99.00
25963;DHT22;13760;52.588;13.406;2023-07-24T10:09:49;26.90;99.20
25963;DHT22;13760;52.588;13.406;2023-07-24T10:12:21;26.90;98.20
25963;DHT22;13760;52.588;13.406;2023-07-24T10:14:48;26.90;98.50
25963;DHT22;13760;52.588;13.406;2023-07-24T10:17:14;27.00;99.30
25963;DHT22;13760;52.588;13.406;2023-07-24T10:19:42;27.10;99.20
25963;DHT22;13760;52.588;13.406;2023-07-24T10:22:18;27.10;98.30
25963;DHT22;13760;52.588;13.406;2023-07-24T10:24:45;27.30;95.70
25963;DHT22;13760;52.588;13.406;2023-07-24T10:27:13;27.30;95.30
25963;DHT22;13760;52.588;13.406;2023-07-24T10:29:39;27.40;94.80
25963;DHT22;13760;52.588;13.406;2023-07-24T10:32:18;27.40;95.20
25963;DHT22;13760;52.588;13.406;2023-07-24T10:34:44;27.50;93.90
25963;DHT22;13760;52.588;13.406;2023-07-24T10:37:10;27.60;93.70
25963;DHT22;13760;52.588;13.406;2023-07-24T10:39:39;27.50;94.20
25963;DHT22;13760;52.588;13.406;2023-07-24T10:42:11;27.70;93.70
25963;DHT22;13760;52.588;13.406;2023-07-24T10:44:39;27.60;92.20
25963;DHT22;13760;52.588;13.406;2023-07-24T10:47:05;27.40;91.60
25963;DHT22;13760;52.588;13.406;2023-07-24T10:49:30;27.40;91.70
25963;DHT22;13760;52.588;13.406;2023-07-24T10:51:59;27.50;92.40
25963;DHT22;13760;52.588;13.406;2023-07-24T10:54:29;27.50;91.20
25963;DHT22;13760;52.588;13.406;2023-07-24T10:57:02;27.50;91.30
25963;DHT22;13760;52.588;13.406;2023-07-24T10:59:38;27.40;91.60
25963;DHT22;13760;52.588;13.406;2023-07-24T11:02:07;27.50;91.40
25963;DHT22;13760;52.588;13.406;2023-07-24T11:04:33;27.60;90.80
25963;DHT22;13760;52.588;13.406;2023-07-24T11:07:00;27.60;91.20
25963;DHT22;13760;52.588;13.406;2023-07-24T11:09:36;27.60;90.90
25963;DHT22;13760;52.588;13.406;2023-07-24T11:12:16;27.70;91.00
25963;DHT22;13760;52.588;13.406;2023-07-24T11:14:52;27.70;89.80
25963;DHT22;13760;52.588;13.406;2023-07-24T11:17:21;27.80;87.80
25963;DHT22;13760;52.588;13.406;2023-07-24T11:19:47;27.80;86.80
25963;DHT22;13760;52.588;13.406;2023-07-24T11:22:15;27.80;88.40
25963;DHT22;13760;52.588;13.406;2023-07-24T11:24:47;27.80;86.20
25963;DHT22;13760;52.588;13.406;2023-07-24T11:27:16;27.70;84.30
25963;DHT22;13760;52.588;13.406;2023-07-24T11:29:48;27.60;86.00
25963;DHT22;13760;52.588;13.406;2023-07-24T11:32:20;27.50;84.00
25963;DHT22;13760;52.588;13.406;2023-07-24T11:34:50;27.50;84.50
25963;DHT22;13760;52.588;13.406;2023-07-24T11:37:17;27.40;83.40
25963;DHT22;13760;52.588;13.406;2023-07-24T11:39:54;27.30;84.00
25963;DHT22;13760;52.588;13.406;2023-07-24T11:42:20;27.30;85.00
25963;DHT22;13760;52.588;13.406;2023-07-24T11:44:45;27.30;83.80
25963;DHT22;13760;52.588;13.406;2023-07-24T11:47:11;27.30;83.50
25963;DHT22;13760;52.588;13.406;2023-07-24T11:49:36;27.40;82.10
25963;DHT22;13760;52.588;13.406;2023-07-24T11:52:06;27.50;82.10
25963;DHT22;13760;52.588;13.406;2023-07-24T11:54:35;27.50;81.40
25963;DHT22;13760;52.588;13.406;2023-07-24T11:57:14;27.40;80.80
25963;DHT22;13760;52.588;13.406;2023-07-24T11:59:41;27.30;81.60
25963;DHT22;13760;52.588;13.406;2023-07-24T12:02:10;27.20;82.50
25963;DHT22;13760;52.588;13.406;2023-07-24T12:04:37;27.20;82.30
25963;DHT22;13760;52.588;13.406;2023-07-24T12:07:08;27.10;84.20
25963;DHT22;13760;52.588;13.406;2023-07-24T12:09:33;26.90;83.00
25963;DHT22;13760;52.588;13.406;2023-07-24T12:11:59;26.90;83.30
25963;DHT22;13760;52.588;13.406;2023-07-24T12:14:25;26.70;83.90
25963;DHT22;13760;52.588;13.406;2023-07-24T12:17:03;26.70;84.70
25963;DHT22;13760;52.588;13.406;2023-07-24T12:19:28;26.40;89.80
25963;DHT22;13760;52.588;13.406;2023-07-24T12:21:54;25.90;96.50
25963;DHT22;13760;52.588;13.406;2023-07-24T12:24:20;25.60;99.90
25963;DHT22;13760;52.588;13.406;2023-07-24T12:26:45;25.20;99.90
25963;DHT22;13760;52.588;13.406;2023-07-24T12:29:11;24.80;99.90
25963;DHT22;13760;52.588;13.406;2023-07-24T12:31:37;24.40;99.90
25963;DHT22;13760;52.588;13.406;2023-07-24T12:34:02;24.00;99.90
25963;DHT22;13760;52.588;13.406;2023-07-24T12:36:28;23.80;99.90
25963;DHT22;13760;52.588;13.406;2023-07-24T12:38:54;23.60;99.90
25963;DHT22;13760;52.588;13.406;2023-07-24T12:41:19;23.50;99.90
25963;DHT22;13760;52.588;13.406;2023-07-24T12:43:45;23.50;99.90
25963;DHT22;13760;52.588;13.406;2023-07-24T12:46:10;23.50;99.90
25963;DHT22;13760;52.588;13.406;2023-07-24T12:48:36;23.60;99.90
25963;DHT22;13760;52.588;13.406;2023-07-24T12:51:02;23.60;99.90
25963;DHT22;13760;52.588;13.406;2023-07-24T12:53:28;23.70;99.90
25963;DHT22;13760;52.588;13.406;2023-07-24T12:55:54;24.00;99.90
25963;DHT22;13760;52.588;13.406;2023-07-24T12:58:19;24.10;99.90
25963;DHT22;13760;52.588;13.406;2023-07-24T13:00:45;24.20;99.90
25963;DHT22;13760;52.588;13.406;2023-07-24T13:03:11;24.10;99.90
25963;DHT22;13760;52.588;13.406;2023-07-24T13:05:37;24.10;99.90
25963;DHT22;13760;52.588;13.406;2023-07-24T13:08:04;24.20;99.90
25963;DHT22;13760;52.588;13.406;2023-07-24T13:10:29;24.10;99.90
25963;DHT22;13760;52.588;13.406;2023-07-24T13:12:55;24.10;99.90
25963;DHT22;13760;52.588;13.406;2023-07-24T13:15:21;24.10;99.90
25963;DHT22;13760;52.588;13.406;2023-07-24T13:17:48;24.00;99.90
25963;DHT22;13760;52.588;13.406;2023-07-24T13:20:13;23.90;99.90
25963;DHT22;13760;52.588;13.406;2023-07-24T13:22:39;23.90;99.90
25963;DHT22;13760;52.588;13.406;2023-07-24T13:25:04;23.90;99.90
25963;DHT22;13760;52.588;13.406;2023-07-24T13:27:30;24.00;99.90
25963;DHT22;13760;52.588;13.406;2023-07-24T13:29:55;24.00;99.90
25963;DHT22;13760;52.588;13.406;2023-07-24T13:32:21;24.10;99.90
25963;DHT22;13760;52.588;13.406;2023-07-24T13:34:47;24.20;99.90
25963;DHT22;13760;52.588;13.406;2023-07-24T13:37:13;24.30;99.90
25963;DHT22;13760;52.588;13.406;2023-07-24T13:39:39;24.50;99.90
25963;DHT22;13760;52.588;13.406;2023-07-24T13:42:04;24.60;99.90
25963;DHT22;13760;52.588;13.406;2023-07-24T13:44:30;24.70;99.90
25963;DHT22;13760;52.588;13.406;2023-07-24T13:46:56;24.80;99.90
25963;DHT22;13760;52.588;13.406;2023-07-24T13:49:22;24.90;99.90
25963;DHT22;13760;52.588;13.406;2023-07-24T13:51:47;25.00;99.90
25963;DHT22;13760;52.588;13.406;2023-07-24T13:54:13;25.00;99.90
25963;DHT22;13760;52.588;13.406;2023-07-24T13:56:38;25.10;99.90
25963;DHT22;13760;52.588;13.406;2023-07-24T13:59:33;25.10;99.90
25963;DHT22;13760;52.588;13.406;2023-07-24T14:02:03;25.00;99.90
25963;DHT22;13760;52.588;13.406;2023-07-24T14:04:29;25.00;99.90
25963;DHT22;13760;52.588;13.406;2023-07-24T14:06:55;25.10;99.90
25963;DHT22;13760;52.588;13.406;2023-07-24T14:09:20;25.10;99.90
25963;DHT22;13760;52.588;13.406;2023-07-24T14:11:52;25.10;99.90
25963;DHT22;13760;52.588;13.406;2023-07-24T14:14:23;25.20;99.90
25963;DHT22;13760;52.588;13.406;2023-07-24T14:17:04;25.20;99.90
25963;DHT22;13760;52.588;13.406;2023-07-24T14:19:30;25.20;99.90
25963;DHT22;13760;52.588;13.406;2023-07-24T14:22:04;25.20;99.90
25963;DHT22;13760;52.588;13.406;2023-07-24T14:24:36;25.20;99.90
25963;DHT22;13760;52.588;13.406;2023-07-24T14:27:14;25.10;99.90
25963;DHT22;13760;52.588;13.406;2023-07-24T14:29:41;25.10;99.90
25963;DHT22;13760;52.588;13.406;2023-07-24T14:32:07;25.10;99.90
25963;DHT22;13760;52.588;13.406;2023-07-24T14:34:33;25.10;99.90
25963;DHT22;13760;52.588;13.406;2023-07-24T14:37:04;25.20;99.90
25963;DHT22;13760;52.588;13.406;2023-07-24T14:39:30;25.20;99.90
25963;DHT22;13760;52.588;13.406;2023-07-24T14:41:56;25.30;99.90
25963;DHT22;13760;52.588;13.406;2023-07-24T14:44:30;25.30;99.90
25963;DHT22;13760;52.588;13.406;2023-07-24T14:47:04;25.30;99.90
25963;DHT22;13760;52.588;13.406;2023-07-24T14:49:30;25.40;99.90
25963;DHT22;13760;52.588;13.406;2023-07-24T14:51:55;25.40;99.90
25963;DHT22;13760;52.588;13.406;2023-07-24T14:54:28;25.40;99.90
25963;DHT22;13760;52.588;13.406;2023-07-24T14:56:58;25.40;99.90
25963;DHT22;13760;52.588;13.406;2023-07-24T14:59:24;25.40;99.90
25963;DHT22;13760;52.588;13.406;2023-07-24T15:04:51;25.40;99.90
25963;DHT22;13760;52.588;13.406;2023-07-24T15:07:20;25.40;99.90
25963;DHT22;13760;52.588;13.406;2023-07-24T15:09:52;25.30;99.90
25963;DHT22;13760;52.588;13.406;2023-07-24T15:12:21;25.30;99.90
25963;DHT22;13760;52.588;13.406;2023-07-24T15:14:54;25.30;99.90
25963;DHT22;13760;52.588;13.406;2023-07-24T15:17:22;25.30;99.90
25963;DHT22;13760;52.588;13.406;2023-07-24T15:19:54;25.30;99.90
25963;DHT22;13760;52.588;13.406;2023-07-24T15:22:19;25.30;99.90
25963;DHT22;13760;52.588;13.406;2023-07-24T15:24:45;25.30;99.90
25963;DHT22;13760;52.588;13.406;2023-07-24T15:27:11;25.40;99.90